createdAt,value
2022-09-28T00:00:12.433Z,85.90
2022-09-28T00:05:14.945Z,85.80
2022-09-28T00:10:19.022Z,85.80
2022-09-28T00:15:22.909Z,85.80
2022-09-28T00:20:25.703Z,85.80
2022-09-28T00:25:29.647Z,85.90
2022-09-28T00:30:31.902Z,86.00
2022-09-28T00:35:34.123Z,86.10
2022-09-28T00:40:38.197Z,86.20
2022-09-28T00:45:41.080Z,86.20
2022-09-28T00:50:45.290Z,86.20
2022-09-28T00:55:54.384Z,86.30
2022-09-28T01:00:59.614Z,86.40
2022-09-28T01:06:05.388Z,86.50
2022-09-28T01:11:09.364Z,86.50
2022-09-28T01:16:19.810Z,86.60
2022-09-28T01:21:24.378Z,86.80
2022-09-28T01:26:42.172Z,86.90
2022-09-28T01:31:48.887Z,87.00
2022-09-28T01:36:55.606Z,86.80
2022-09-28T01:42:04.662Z,86.70
2022-09-28T01:47:10.825Z,86.70
2022-09-28T01:52:20.063Z,86.60
2022-09-28T01:57:29.777Z,86.70
2022-09-28T02:02:35.531Z,86.90
2022-09-28T02:07:42.346Z,86.90
2022-09-28T02:12:50.195Z,87.10
2022-09-28T02:17:53.384Z,87.20
2022-09-28T02:22:58.581Z,87.10
2022-09-28T02:28:05.355Z,87.20
2022-09-28T02:33:13.184Z,87.20
2022-09-28T02:38:15.823Z,87.10
2022-09-28T02:43:25.067Z,86.90
2022-09-28T02:48:43.938Z,87.00
2022-09-28T02:54:07.734Z,87.10
2022-09-28T02:59:20.879Z,87.40
2022-09-28T03:04:35.294Z,87.20
2022-09-28T03:09:47.109Z,86.80
2022-09-28T03:15:07.607Z,86.50
2022-09-28T03:20:11.653Z,86.60
2022-09-28T03:25:15.075Z,86.50
2022-09-28T03:30:18.970Z,86.60
2022-09-28T03:35:21.394Z,86.80
2022-09-28T03:40:24.205Z,86.80
2022-09-28T03:45:28.533Z,86.80
2022-09-28T03:50:31.286Z,86.80
2022-09-28T03:55:33.874Z,86.80
2022-09-28T04:00:38.574Z,86.90
2022-09-28T04:05:49.158Z,87.10
2022-09-28T04:10:51.945Z,87.20
2022-09-28T04:15:59.176Z,86.70
2022-09-28T04:21:04.506Z,86.60
2022-09-28T04:26:08.619Z,86.60
2022-09-28T04:31:16.946Z,86.80
2022-09-28T04:36:20.283Z,87.30
2022-09-28T04:41:22.869Z,87.50
2022-09-28T04:46:26.922Z,87.30
2022-09-28T04:51:31.621Z,87.00
2022-09-28T04:56:34.095Z,86.90
2022-09-28T05:01:38.426Z,86.80
2022-09-28T05:06:41.281Z,86.80
2022-09-28T05:11:44.138Z,87.00
2022-09-28T05:16:48.697Z,87.20
2022-09-28T05:21:51.666Z,87.30
2022-09-28T05:26:54.786Z,87.50
2022-09-28T05:32:00.435Z,87.50
2022-09-28T05:37:03.122Z,87.40
2022-09-28T05:42:06.071Z,87.40
2022-09-28T05:47:10.312Z,87.70
2022-09-28T05:52:12.717Z,88.00
2022-09-28T05:57:15.870Z,88.30
2022-09-28T06:02:20.233Z,88.50
2022-09-28T06:07:23.101Z,88.60
2022-09-28T06:12:25.843Z,88.30
2022-09-28T06:17:29.626Z,88.00
2022-09-28T06:22:32.263Z,88.00
2022-09-28T06:27:34.931Z,87.90
2022-09-28T06:32:39.000Z,87.90
2022-09-28T06:37:44.030Z,88.00
2022-09-28T06:42:56.132Z,87.90
2022-09-28T06:48:02.319Z,87.70
2022-09-28T06:53:05.985Z,87.70
2022-09-28T06:58:11.819Z,87.70
2022-09-28T07:03:17.563Z,87.70
2022-09-28T07:08:23.084Z,87.80
2022-09-28T07:13:49.194Z,87.60
2022-09-28T07:18:51.578Z,87.30
2022-09-28T07:23:54.523Z,87.30
2022-09-28T07:28:57.337Z,87.90
2022-09-28T07:34:01.522Z,88.20
2022-09-28T07:39:04.310Z,88.40
2022-09-28T07:44:07.780Z,88.20
2022-09-28T07:49:12.478Z,87.70
2022-09-28T07:54:15.136Z,87.70
2022-09-28T07:59:18.205Z,88.30
2022-09-28T08:04:22.695Z,88.10
2022-09-28T08:09:25.401Z,87.70
2022-09-28T08:14:28.323Z,87.30
2022-09-28T08:19:33.136Z,86.90
2022-09-28T08:24:35.663Z,86.90
2022-09-28T08:29:38.304Z,87.50
2022-09-28T08:34:42.307Z,86.60
2022-09-28T08:39:44.930Z,87.40
2022-09-28T08:44:50.720Z,88.10
2022-09-28T08:55:03.900Z,85.60
2022-09-28T09:00:11.544Z,84.50
2022-09-28T09:05:18.332Z,82.60
2022-09-28T09:10:38.953Z,80.50
2022-09-28T09:15:50.152Z,77.70
2022-09-28T09:20:57.283Z,78.40
2022-09-28T09:26:06.194Z,78.50
2022-09-28T09:31:21.920Z,78.50
2022-09-28T09:36:41.220Z,78.90
2022-09-28T09:41:57.643Z,78.10
2022-09-28T09:47:05.957Z,78.00
2022-09-28T09:52:16.412Z,79.70
2022-09-28T09:57:24.479Z,81.10
2022-09-28T10:02:29.233Z,80.10
2022-09-28T10:07:43.141Z,79.70
2022-09-28T10:12:46.254Z,80.40
2022-09-28T10:17:48.734Z,79.00
2022-09-28T10:22:56.537Z,77.60
2022-09-28T10:28:01.403Z,77.70
2022-09-28T10:33:04.211Z,77.40
2022-09-28T10:38:14.614Z,74.70
2022-09-28T10:43:22.068Z,71.60
2022-09-28T10:48:24.764Z,69.20
2022-09-28T10:53:28.840Z,68.20
2022-09-28T10:58:37.471Z,64.80
2022-09-28T11:03:51.087Z,63.00
2022-09-28T11:08:56.988Z,62.40
2022-09-28T11:14:02.388Z,63.90
2022-09-28T11:19:26.504Z,65.10
2022-09-28T11:24:30.972Z,68.10
2022-09-28T11:29:38.778Z,69.00
2022-09-28T11:34:59.224Z,68.00
2022-09-28T11:40:16.864Z,66.40
2022-09-28T11:45:34.342Z,64.60
2022-09-28T11:50:46.034Z,64.10
2022-09-28T11:55:56.460Z,62.80
2022-09-28T12:01:05.947Z,60.70
2022-09-28T12:06:14.480Z,60.60
2022-09-28T12:11:25.465Z,60.40
2022-09-28T12:22:03.100Z,61.30
2022-09-28T12:27:14.626Z,62.30
2022-09-28T12:32:29.411Z,62.30
2022-09-28T12:37:46.712Z,62.70
2022-09-28T12:43:09.550Z,63.10
2022-09-28T12:48:36.219Z,63.30
2022-09-28T12:54:11.236Z,64.40
2022-09-28T12:59:24.927Z,65.10
2022-09-28T13:05:00.676Z,66.60
2022-09-28T13:10:12.578Z,64.80
2022-09-28T13:15:40.185Z,64.20
2022-09-28T13:20:56.728Z,62.00
2022-09-28T13:26:07.370Z,61.90
2022-09-28T13:31:17.007Z,62.20
2022-09-28T13:36:38.445Z,62.60
2022-09-28T13:41:48.698Z,62.30
2022-09-28T13:47:19.973Z,63.00
2022-09-28T13:52:40.054Z,63.10
2022-09-28T13:57:48.928Z,63.10
2022-09-28T14:02:59.196Z,63.00
2022-09-28T14:08:30.468Z,62.70
2022-09-28T14:14:02.226Z,62.70
2022-09-28T14:19:12.351Z,63.00
2022-09-28T14:24:37.403Z,63.30
2022-09-28T14:29:40.512Z,63.00
2022-09-28T14:34:48.261Z,63.50
2022-09-28T14:39:51.746Z,63.50
2022-09-28T14:45:35.127Z,64.30
2022-09-28T14:50:39.599Z,64.20
2022-09-28T14:55:47.277Z,64.90
2022-09-28T15:00:56.098Z,65.30
2022-09-28T15:06:00.268Z,65.70
2022-09-28T15:11:02.706Z,66.50
2022-09-28T15:16:08.432Z,66.90
2022-09-28T15:21:13.477Z,67.40
2022-09-28T15:26:25.314Z,67.80
2022-09-28T15:31:30.886Z,68.40
2022-09-28T15:36:39.752Z,68.70
2022-09-28T15:41:43.608Z,69.20
2022-09-28T15:46:47.836Z,69.60
2022-09-28T15:51:54.866Z,69.60
2022-09-28T15:56:59.222Z,69.70
2022-09-28T16:02:20.630Z,69.50
2022-09-28T16:07:33.574Z,69.70
2022-09-28T16:12:45.144Z,69.60
2022-09-28T16:17:53.549Z,69.70
2022-09-28T16:23:00.114Z,69.40
2022-09-28T16:28:02.692Z,69.50
2022-09-28T16:33:06.473Z,69.80
2022-09-28T16:38:14.296Z,70.00
2022-09-28T16:43:21.513Z,70.30
2022-09-28T16:48:25.677Z,70.60
2022-09-28T16:53:29.579Z,70.90
2022-09-28T16:58:32.616Z,70.70
2022-09-28T17:03:35.761Z,71.40
2022-09-28T17:08:39.768Z,72.20
2022-09-28T17:13:42.612Z,73.10
2022-09-28T17:18:45.555Z,73.30
2022-09-28T17:23:50.399Z,73.60
2022-09-28T17:28:53.059Z,73.80
2022-09-28T17:33:55.695Z,73.80
2022-09-28T17:39:01.300Z,74.00
2022-09-28T17:44:03.985Z,74.30
2022-09-28T17:49:08.180Z,75.20
2022-09-28T17:54:12.309Z,74.50
2022-09-28T17:59:17.662Z,75.00
2022-09-28T18:04:47.138Z,75.30
2022-09-28T18:09:44.059Z,75.30
2022-09-28T18:14:46.452Z,75.40
2022-09-28T18:19:48.909Z,75.40
2022-09-28T18:24:53.183Z,75.50
2022-09-28T18:29:55.604Z,75.90
2022-09-28T18:34:59.665Z,76.10
2022-09-28T18:40:04.397Z,76.00
2022-09-28T18:45:09.451Z,76.00
2022-09-28T18:50:12.972Z,76.00
2022-09-28T18:55:17.029Z,75.60
2022-09-28T19:00:19.754Z,75.60
2022-09-28T19:05:22.529Z,75.40
2022-09-28T19:10:26.891Z,75.50
2022-09-28T19:15:29.541Z,75.70
2022-09-28T19:20:33.737Z,75.80
2022-09-28T19:25:37.832Z,76.10
2022-09-28T19:30:40.995Z,76.50
2022-09-28T19:35:43.634Z,76.80
2022-09-28T19:40:47.638Z,76.90
2022-09-28T19:45:51.210Z,76.60
2022-09-28T19:50:57.013Z,76.40
2022-09-28T19:56:01.720Z,76.90
2022-09-28T20:01:07.175Z,77.30
2022-09-28T20:06:11.828Z,77.60
2022-09-28T20:11:19.776Z,77.70
2022-09-28T20:16:22.196Z,77.80
2022-09-28T20:21:27.275Z,77.90
2022-09-28T20:26:31.352Z,78.30
2022-09-28T20:31:35.151Z,78.00
2022-09-28T20:36:38.177Z,77.80
2022-09-28T20:41:42.455Z,77.70
2022-09-28T20:46:45.073Z,77.60
2022-09-28T20:51:47.418Z,77.30
2022-09-28T20:56:51.251Z,77.10
2022-09-28T21:01:54.277Z,77.10
2022-09-28T21:06:57.056Z,77.20
2022-09-28T21:12:01.698Z,77.20
2022-09-28T21:17:04.440Z,77.40
2022-09-28T21:22:06.973Z,77.40
2022-09-28T21:27:10.745Z,77.30
2022-09-28T21:32:13.162Z,77.40
2022-09-28T21:37:16.643Z,77.40
2022-09-28T21:42:20.904Z,77.50
2022-09-28T21:47:23.375Z,78.10
2022-09-28T21:52:26.165Z,78.40
2022-09-28T21:57:30.115Z,78.40
2022-09-28T22:02:32.795Z,78.70
2022-09-28T22:07:35.749Z,79.10
2022-09-28T22:12:39.995Z,79.50
2022-09-28T22:17:42.719Z,80.00
2022-09-28T22:22:49.486Z,79.50
2022-09-28T22:27:54.250Z,79.00
2022-09-28T22:32:56.833Z,78.40
2022-09-28T22:38:00.426Z,78.50
2022-09-28T22:43:04.142Z,79.10
2022-09-28T22:48:06.493Z,79.10
2022-09-28T22:53:09.319Z,79.00
2022-09-28T22:58:13.539Z,79.00
2022-09-28T23:03:17.314Z,78.80
2022-09-28T23:08:19.683Z,78.70
2022-09-28T23:13:23.450Z,79.20
2022-09-28T23:18:27.467Z,79.90
2022-09-28T23:23:31.186Z,80.10
2022-09-28T23:28:34.856Z,80.70
2022-09-28T23:33:37.351Z,80.90
2022-09-28T23:38:40.069Z,80.90
2022-09-28T23:43:44.949Z,80.60
2022-09-28T23:48:47.286Z,80.20
2022-09-28T23:53:49.647Z,80.00
2022-09-28T23:58:53.378Z,79.70
